Silver Ridge, Maine
Current Conditions -  °F | °C
As of 4:53 PM on Saturday 20 Dec 2014 (Local Time) from KMLT Reporting Station
Overcast Overcast  
Wind Chill: 11°   Ceiling: 1500
Heat Index: 20°   Visibility: 10mi
Dew Point: 16°   Wind: 7mph
Humidity: 85%   Direction: 330°NNW
Pressure: 30.36"   Gusts: NA
Location:  45.8047°N, 68.2984°W
Report Text: KMLT 202153Z AUTO 33006KT 10SM OVC015 M07/M09 A3036 RMK AO2 SLP294 T10671089
Loading
Personal Weather Stations






























Interactive Weather Map New forecast layout! Learn more

10-Day Weather Forecast

Advertisements
Track Severe Weather on mobile